createdAt,value
2023-02-17T00:00:53.030Z,4.92
2023-02-17T00:01:53.032Z,4.91
2023-02-17T00:02:53.058Z,4.88
2023-02-17T00:03:53.168Z,4.88
2023-02-17T00:04:53.061Z,4.91
2023-02-17T00:05:53.070Z,4.89
2023-02-17T00:06:53.082Z,4.86
2023-02-17T00:07:53.092Z,4.89
2023-02-17T00:08:53.106Z,4.91
2023-02-17T00:09:53.108Z,4.84
2023-02-17T00:10:53.113Z,4.86
2023-02-17T00:11:53.120Z,4.86
2023-02-17T00:12:53.124Z,4.67
2023-02-17T00:13:55.257Z,4.72
2023-02-17T00:14:53.242Z,4.67
2023-02-17T00:15:53.188Z,4.65
2023-02-17T00:16:53.161Z,4.73
2023-02-17T00:17:53.174Z,4.66
2023-02-17T00:18:53.174Z,4.65
2023-02-17T00:19:53.197Z,4.60
2023-02-17T00:20:53.196Z,4.65
2023-02-17T00:21:53.198Z,4.72
2023-02-17T00:22:53.216Z,4.67
2023-02-17T00:23:53.228Z,4.62
2023-02-17T00:24:53.221Z,4.55
2023-02-17T00:25:53.223Z,4.66
2023-02-17T00:26:53.244Z,4.70
2023-02-17T00:27:53.244Z,4.58
2023-02-17T00:28:53.271Z,4.69
2023-02-17T00:29:53.259Z,4.63
2023-02-17T00:30:53.407Z,4.63
2023-02-17T00:31:53.432Z,4.63
2023-02-17T00:32:53.284Z,4.63
2023-02-17T00:33:53.292Z,4.58
2023-02-17T00:34:53.302Z,4.59
2023-02-17T00:35:53.323Z,4.50
2023-02-17T00:36:53.324Z,4.47
2023-02-17T00:37:53.321Z,4.52
2023-02-17T00:38:53.360Z,4.50
2023-02-17T00:39:53.355Z,4.45
2023-02-17T00:40:53.349Z,4.36
2023-02-17T00:41:53.352Z,4.44
2023-02-17T00:42:53.364Z,4.36
2023-02-17T00:43:53.368Z,4.33
2023-02-17T00:44:53.380Z,4.45
2023-02-17T00:45:53.384Z,4.42
2023-02-17T00:46:53.464Z,4.42
2023-02-17T00:47:53.398Z,4.27
2023-02-17T00:48:53.467Z,4.36
2023-02-17T00:49:53.414Z,4.29
2023-02-17T00:50:53.431Z,4.22
2023-02-17T00:51:53.458Z,4.22
2023-02-17T00:52:53.440Z,4.27
2023-02-17T00:53:53.446Z,4.22
2023-02-17T00:54:53.456Z,4.27
2023-02-17T00:55:53.461Z,4.12
2023-02-17T00:56:53.480Z,4.11
2023-02-17T00:57:53.473Z,4.18
2023-02-17T00:58:53.488Z,4.22
2023-02-17T00:59:53.490Z,4.18
2023-02-17T01:00:53.499Z,4.14
2023-02-17T01:01:53.588Z,4.09
2023-02-17T01:02:53.520Z,4.16
2023-02-17T01:03:53.519Z,4.08
2023-02-17T01:04:53.591Z,4.11
2023-02-17T01:05:53.537Z,4.05
2023-02-17T01:06:53.550Z,4.06
2023-02-17T01:07:53.566Z,4.09
2023-02-17T01:08:53.585Z,4.14
2023-02-17T01:09:53.560Z,4.09
2023-02-17T01:10:53.573Z,4.08
2023-02-17T01:11:53.582Z,4.20
2023-02-17T01:12:53.589Z,4.14
2023-02-17T01:13:53.593Z,4.15
2023-02-17T01:14:53.605Z,4.12
2023-02-17T01:15:53.631Z,4.18
2023-02-17T01:16:53.626Z,4.15
2023-02-17T01:17:53.637Z,4.14
2023-02-17T01:18:53.651Z,4.09
2023-02-17T01:19:53.647Z,4.12
2023-02-17T01:20:53.659Z,4.12
2023-02-17T01:21:53.660Z,4.14
2023-02-17T01:22:53.669Z,4.05
2023-02-17T01:23:53.685Z,4.06
2023-02-17T01:24:53.677Z,4.15
2023-02-17T01:25:53.681Z,4.15
2023-02-17T01:26:53.690Z,4.26
2023-02-17T01:27:53.694Z,4.29
2023-02-17T01:28:53.703Z,4.26
2023-02-17T01:29:53.732Z,4.40
2023-02-17T01:30:53.783Z,4.34
2023-02-17T01:31:53.761Z,4.40
2023-02-17T01:32:53.737Z,4.37
2023-02-17T01:33:53.738Z,4.37
2023-02-17T01:34:53.749Z,4.42
2023-02-17T01:35:53.750Z,4.48
2023-02-17T01:36:53.762Z,4.47
2023-02-17T01:37:53.763Z,4.50
2023-02-17T01:38:53.784Z,4.51
2023-02-17T01:39:53.802Z,4.48
2023-02-17T01:40:53.794Z,4.54
2023-02-17T01:41:53.790Z,4.60
2023-02-17T01:42:53.800Z,4.52
2023-02-17T01:43:53.806Z,4.55
2023-02-17T01:44:53.826Z,4.58
2023-02-17T01:45:53.818Z,4.54
2023-02-17T01:46:53.937Z,4.55
2023-02-17T01:47:53.833Z,4.58
2023-02-17T01:48:53.844Z,4.59
2023-02-17T01:49:53.845Z,4.65
2023-02-17T01:50:53.859Z,4.52
2023-02-17T01:51:53.868Z,4.51
2023-02-17T01:52:53.877Z,4.66
2023-02-17T01:53:53.875Z,4.48
2023-02-17T01:54:53.887Z,4.51
2023-02-17T01:55:53.909Z,4.62
2023-02-17T01:56:53.901Z,4.62
2023-02-17T01:57:53.911Z,4.59
2023-02-17T01:58:53.910Z,4.67
2023-02-17T01:59:53.925Z,4.59
2023-02-17T02:00:53.925Z,4.62
2023-02-17T02:01:54.030Z,4.54
2023-02-17T02:02:54.128Z,4.63
2023-02-17T02:03:53.951Z,4.63
2023-02-17T02:04:53.971Z,4.60
2023-02-17T02:05:53.967Z,4.63
2023-02-17T02:06:53.975Z,4.65
2023-02-17T02:07:53.981Z,4.47
2023-02-17T02:08:53.988Z,4.44
2023-02-17T02:09:54.007Z,4.36
2023-02-17T02:10:54.000Z,4.40
2023-02-17T02:11:54.028Z,4.30
2023-02-17T02:12:54.016Z,4.41
2023-02-17T02:13:54.045Z,4.40
2023-02-17T02:14:54.031Z,4.27
2023-02-17T02:15:54.040Z,4.32
2023-02-17T02:16:54.047Z,4.27
2023-02-17T02:17:54.071Z,4.33
2023-02-17T02:18:54.062Z,4.26
2023-02-17T02:19:54.081Z,4.34
2023-02-17T02:20:54.076Z,4.36
2023-02-17T02:21:54.096Z,4.29
2023-02-17T02:22:54.091Z,4.29
2023-02-17T02:23:54.113Z,4.22
2023-02-17T02:24:54.116Z,4.26
2023-02-17T02:25:54.118Z,4.23
2023-02-17T02:26:54.121Z,4.24
2023-02-17T02:27:54.152Z,4.24
2023-02-17T02:28:54.138Z,4.24
2023-02-17T02:29:54.186Z,4.41
2023-02-17T02:30:54.159Z,4.36
2023-02-17T02:31:54.202Z,4.36
2023-02-17T02:32:54.168Z,4.40
2023-02-17T02:33:54.180Z,4.37
2023-02-17T02:34:54.183Z,4.40
2023-02-17T02:35:54.195Z,4.34
2023-02-17T02:36:54.197Z,4.33
2023-02-17T02:37:54.206Z,4.36
2023-02-17T02:38:54.212Z,4.48
2023-02-17T02:39:54.239Z,4.32
2023-02-17T02:40:54.224Z,4.36
2023-02-17T02:41:54.237Z,4.37
2023-02-17T02:42:54.244Z,4.40
2023-02-17T02:43:54.276Z,4.36
2023-02-17T02:44:54.268Z,4.30
2023-02-17T02:45:54.298Z,4.33
2023-02-17T02:46:54.271Z,4.30
2023-02-17T02:47:54.284Z,4.41
2023-02-17T02:48:54.289Z,4.47
2023-02-17T02:49:54.294Z,4.47
2023-02-17T02:50:54.298Z,4.52
2023-02-17T02:51:54.308Z,4.48
2023-02-17T02:52:54.313Z,4.47
2023-02-17T02:53:54.327Z,4.51
2023-02-17T02:54:54.332Z,4.47
2023-02-17T02:55:54.344Z,4.55
2023-02-17T02:56:54.339Z,4.62
2023-02-17T02:57:54.355Z,4.48
2023-02-17T02:58:54.388Z,4.48
2023-02-17T02:59:54.393Z,4.51
2023-02-17T03:00:54.478Z,4.59
2023-02-17T03:01:54.383Z,4.48
2023-02-17T03:02:54.383Z,4.50
2023-02-17T03:03:54.411Z,4.54
2023-02-17T03:04:54.401Z,4.58
2023-02-17T03:05:54.439Z,4.60
2023-02-17T03:06:54.413Z,4.52
2023-02-17T03:07:54.428Z,4.63
2023-02-17T03:08:54.427Z,4.67
2023-02-17T03:09:54.439Z,4.72
2023-02-17T03:10:54.440Z,4.75
2023-02-17T03:11:54.454Z,4.72
2023-02-17T03:12:54.474Z,4.69
2023-02-17T03:13:54.493Z,4.70
2023-02-17T03:14:54.471Z,4.72
2023-02-17T03:15:54.498Z,4.69
2023-02-17T03:16:54.488Z,4.70
2023-02-17T03:17:54.502Z,4.69
2023-02-17T03:18:54.495Z,4.66
2023-02-17T03:19:54.516Z,4.69
2023-02-17T03:20:54.510Z,4.70
2023-02-17T03:21:54.524Z,4.62
2023-02-17T03:22:54.526Z,4.69
2023-02-17T03:23:54.544Z,4.72
2023-02-17T03:24:54.555Z,4.77
2023-02-17T03:25:54.549Z,4.75
2023-02-17T03:26:54.554Z,4.77
2023-02-17T03:27:54.572Z,4.82
2023-02-17T03:28:54.567Z,4.73
2023-02-17T03:29:54.619Z,4.78
2023-02-17T03:30:54.592Z,4.78
2023-02-17T03:31:54.787Z,4.80
2023-02-17T03:32:54.594Z,4.72
2023-02-17T03:33:54.604Z,4.82
2023-02-17T03:34:54.615Z,4.82
2023-02-17T03:35:54.623Z,4.82
2023-02-17T03:36:54.637Z,4.73
2023-02-17T03:37:54.644Z,4.82
2023-02-17T03:38:54.640Z,4.85
2023-02-17T03:39:54.658Z,4.77
2023-02-17T03:40:54.661Z,4.85
2023-02-17T03:41:54.668Z,4.77
2023-02-17T03:42:54.668Z,4.78
2023-02-17T03:43:54.707Z,4.78
2023-02-17T03:44:54.685Z,4.75
2023-02-17T03:45:54.722Z,4.78
2023-02-17T03:46:54.797Z,4.82
2023-02-17T03:47:54.764Z,4.88
2023-02-17T03:48:54.715Z,4.72
2023-02-17T03:49:54.729Z,4.82
2023-02-17T03:50:54.727Z,4.82
2023-02-17T03:51:54.738Z,4.72
2023-02-17T03:52:54.742Z,4.78
2023-02-17T03:53:54.751Z,4.77
2023-02-17T03:54:54.756Z,4.78
2023-02-17T03:55:54.773Z,4.75
2023-02-17T03:56:54.805Z,4.67
2023-02-17T03:57:54.778Z,4.70
2023-02-17T03:58:54.786Z,4.77
2023-02-17T03:59:54.799Z,4.85
2023-02-17T04:00:54.798Z,4.77
2023-02-17T04:01:54.812Z,4.82
2023-02-17T04:02:54.818Z,4.77
2023-02-17T04:03:54.969Z,4.82
2023-02-17T04:04:54.829Z,4.75
2023-02-17T04:05:54.842Z,4.85
2023-02-17T04:06:54.843Z,4.70
2023-02-17T04:07:54.854Z,4.77
2023-02-17T04:08:54.858Z,4.63
2023-02-17T04:09:54.867Z,4.65
2023-02-17T04:10:54.874Z,4.70
2023-02-17T04:11:54.889Z,4.67
2023-02-17T04:12:54.892Z,4.67
2023-02-17T04:13:54.898Z,4.66
2023-02-17T04:14:54.906Z,4.70
2023-02-17T04:15:54.969Z,4.66
2023-02-17T04:16:54.918Z,4.63
2023-02-17T04:17:54.935Z,4.41
2023-02-17T04:18:54.929Z,4.37
2023-02-17T04:19:54.957Z,4.33
2023-02-17T04:20:54.947Z,4.34
2023-02-17T04:21:54.953Z,4.30
2023-02-17T04:22:54.961Z,4.44
2023-02-17T04:23:54.979Z,4.45
2023-02-17T04:24:54.972Z,4.34
2023-02-17T04:25:54.985Z,4.32
2023-02-17T04:26:54.986Z,4.37
2023-02-17T04:27:55.007Z,4.33
2023-02-17T04:28:55.007Z,4.40
2023-02-17T04:29:55.057Z,4.33
2023-02-17T04:30:55.092Z,4.36
2023-02-17T04:31:55.208Z,4.51
2023-02-17T04:32:55.032Z,4.45
2023-02-17T04:33:55.049Z,4.45
2023-02-17T04:34:55.048Z,4.33
2023-02-17T04:35:55.078Z,4.33
2023-02-17T04:36:55.063Z,4.33
2023-02-17T04:37:55.073Z,4.32
2023-02-17T04:38:55.075Z,4.48
2023-02-17T04:39:55.087Z,4.47
2023-02-17T04:40:55.090Z,4.42
2023-02-17T04:41:55.102Z,4.48
2023-02-17T04:42:55.107Z,4.48
2023-02-17T04:43:55.118Z,4.47
2023-02-17T04:44:55.120Z,4.47
2023-02-17T04:45:55.185Z,4.48
2023-02-17T04:46:55.134Z,4.47
2023-02-17T04:47:55.159Z,4.69
2023-02-17T04:48:55.159Z,4.84
2023-02-17T04:49:55.167Z,4.77
2023-02-17T04:50:55.161Z,4.85
2023-02-17T04:51:55.193Z,4.97
2023-02-17T04:52:55.186Z,4.94
2023-02-17T04:53:55.188Z,5.02
2023-02-17T04:54:55.192Z,4.94
2023-02-17T04:55:55.209Z,5.03
2023-02-17T04:56:55.209Z,5.00
2023-02-17T04:57:55.216Z,4.94
2023-02-17T04:58:55.223Z,4.85
2023-02-17T04:59:55.235Z,4.86
2023-02-17T05:00:55.242Z,4.94
2023-02-17T05:01:55.291Z,4.78
2023-02-17T05:02:55.261Z,4.70
2023-02-17T05:03:55.266Z,4.69
2023-02-17T05:04:55.331Z,4.70
2023-02-17T05:05:55.276Z,4.78
2023-02-17T05:06:55.282Z,4.69
2023-02-17T05:07:55.306Z,4.62
2023-02-17T05:08:55.292Z,4.63
2023-02-17T05:09:55.301Z,4.54
2023-02-17T05:10:55.310Z,4.54
2023-02-17T05:11:55.318Z,4.50
2023-02-17T05:12:55.319Z,4.41
2023-02-17T05:13:55.327Z,4.40
2023-02-17T05:14:55.339Z,4.42
2023-02-17T05:15:55.406Z,4.34
2023-02-17T05:16:55.349Z,4.52
2023-02-17T05:17:55.360Z,4.50
2023-02-17T05:18:55.362Z,4.42
2023-02-17T05:19:55.375Z,4.45
2023-02-17T05:20:55.383Z,4.51
2023-02-17T05:21:55.392Z,4.29
2023-02-17T05:22:55.393Z,4.34
2023-02-17T05:23:55.422Z,4.40
2023-02-17T05:24:55.412Z,4.34
2023-02-17T05:25:55.533Z,4.37
2023-02-17T05:26:55.429Z,4.26
2023-02-17T05:27:55.442Z,4.29
2023-02-17T05:28:55.432Z,4.24
2023-02-17T05:29:55.511Z,4.22
2023-02-17T05:30:55.476Z,4.12
2023-02-17T05:31:55.506Z,4.20
2023-02-17T05:32:55.464Z,4.18
2023-02-17T05:33:55.476Z,4.16
2023-02-17T05:34:55.485Z,4.23
2023-02-17T05:35:55.487Z,4.18
2023-02-17T05:36:55.488Z,4.23
2023-02-17T05:37:55.502Z,4.24
2023-02-17T05:38:55.503Z,4.24
2023-02-17T05:39:55.534Z,4.29
2023-02-17T05:40:55.523Z,4.27
2023-02-17T05:41:56.710Z,4.23
2023-02-17T05:42:55.532Z,4.22
2023-02-17T05:43:55.541Z,4.18
2023-02-17T05:44:55.550Z,4.15
2023-02-17T05:45:55.555Z,4.09
2023-02-17T05:46:55.562Z,4.11
2023-02-17T05:47:55.576Z,4.11
2023-02-17T05:48:55.580Z,4.11
2023-02-17T05:49:55.585Z,4.18
2023-02-17T05:50:55.600Z,4.18
2023-02-17T05:51:55.607Z,4.24
2023-02-17T05:52:55.605Z,4.23
2023-02-17T05:53:55.615Z,4.23
2023-02-17T05:54:55.617Z,4.24
2023-02-17T05:55:55.648Z,4.33
2023-02-17T05:56:55.634Z,4.34
2023-02-17T05:57:55.655Z,4.42
2023-02-17T05:58:55.661Z,4.29
2023-02-17T05:59:55.663Z,4.32
2023-02-17T06:00:55.666Z,4.32
2023-02-17T06:01:55.677Z,4.45
2023-02-17T06:02:55.731Z,4.40
2023-02-17T06:03:55.691Z,4.34
2023-02-17T06:04:55.817Z,4.50
2023-02-17T06:05:55.700Z,4.48
2023-02-17T06:06:55.705Z,4.36
2023-02-17T06:07:55.721Z,4.41
2023-02-17T06:08:55.721Z,4.42
2023-02-17T06:09:55.744Z,4.45
2023-02-17T06:10:55.733Z,4.34
2023-02-17T06:11:55.769Z,4.30
2023-02-17T06:12:55.750Z,4.33
2023-02-17T06:13:55.759Z,4.36
2023-02-17T06:14:55.770Z,4.34
2023-02-17T06:15:55.797Z,4.45
2023-02-17T06:16:55.803Z,4.33
2023-02-17T06:17:55.791Z,4.45
2023-02-17T06:18:55.811Z,4.33
2023-02-17T06:19:55.810Z,4.36
2023-02-17T06:20:55.808Z,4.37
2023-02-17T06:21:55.814Z,4.37
2023-02-17T06:22:55.822Z,4.41
2023-02-17T06:23:55.833Z,4.36
2023-02-17T06:24:55.839Z,4.30
2023-02-17T06:25:55.857Z,4.30
2023-02-17T06:26:55.851Z,4.34
2023-02-17T06:27:55.874Z,4.33
2023-02-17T06:28:55.867Z,4.36
2023-02-17T06:29:55.883Z,4.45
2023-02-17T06:30:55.905Z,4.33
2023-02-17T06:31:56.053Z,4.34
2023-02-17T06:32:55.891Z,4.36
2023-02-17T06:33:55.895Z,4.32
2023-02-17T06:34:55.907Z,4.33
2023-02-17T06:35:55.907Z,4.34
2023-02-17T06:36:55.917Z,4.33
2023-02-17T06:37:55.962Z,4.30
2023-02-17T06:38:55.930Z,4.33
2023-02-17T06:39:55.935Z,4.45
2023-02-17T06:40:55.948Z,4.32
2023-02-17T06:41:55.950Z,4.40
2023-02-17T06:42:56.016Z,4.37
2023-02-17T06:43:55.982Z,4.44
2023-02-17T06:44:55.972Z,4.45
2023-02-17T06:45:56.074Z,4.33
2023-02-17T06:46:55.987Z,4.42
2023-02-17T06:47:55.991Z,4.34
2023-02-17T06:48:56.005Z,4.34
2023-02-17T06:49:56.004Z,4.41
2023-02-17T06:50:56.015Z,4.47
2023-02-17T06:51:56.017Z,4.51
2023-02-17T06:52:56.045Z,4.50
2023-02-17T06:53:56.035Z,4.54
2023-02-17T06:54:56.040Z,4.54
2023-02-17T06:55:56.061Z,4.59
2023-02-17T06:56:56.078Z,4.60
2023-02-17T06:57:56.062Z,4.66
2023-02-17T06:58:56.074Z,4.63
2023-02-17T06:59:56.094Z,4.70
2023-02-17T07:00:56.088Z,4.66
2023-02-17T07:01:56.224Z,4.69
2023-02-17T07:02:56.257Z,4.72
2023-02-17T07:03:56.109Z,4.70
2023-02-17T07:04:56.120Z,4.65
2023-02-17T07:05:56.120Z,4.67
2023-02-17T07:06:56.146Z,4.69
2023-02-17T07:07:56.135Z,4.72
2023-02-17T07:08:56.169Z,4.69
2023-02-17T07:09:56.158Z,4.73
2023-02-17T07:10:56.182Z,4.84
2023-02-17T07:11:56.167Z,4.78
2023-02-17T07:12:56.174Z,4.75
2023-02-17T07:13:56.180Z,4.80
2023-02-17T07:14:56.189Z,4.84
2023-02-17T07:15:56.253Z,4.86
2023-02-17T07:16:56.211Z,4.88
2023-02-17T07:17:56.210Z,4.85
2023-02-17T07:18:56.221Z,4.97
2023-02-17T07:19:56.226Z,4.97
2023-02-17T07:20:56.234Z,4.96
2023-02-17T07:21:56.239Z,5.07
2023-02-17T07:22:56.256Z,5.13
2023-02-17T07:23:56.253Z,5.12
2023-02-17T07:24:56.268Z,5.12
2023-02-17T07:25:56.275Z,5.07
2023-02-17T07:26:56.436Z,5.18
2023-02-17T07:27:56.284Z,5.10
2023-02-17T07:28:56.303Z,5.21
2023-02-17T07:29:56.327Z,5.17
2023-02-17T07:30:56.326Z,5.13
2023-02-17T07:31:56.405Z,5.10
2023-02-17T07:32:56.345Z,5.10
2023-02-17T07:33:56.341Z,5.13
2023-02-17T07:34:56.344Z,5.13
2023-02-17T07:35:56.345Z,5.15
2023-02-17T07:36:56.357Z,5.25
2023-02-17T07:37:56.359Z,5.31
2023-02-17T07:38:56.380Z,5.30
2023-02-17T07:39:56.384Z,5.38
2023-02-17T07:40:56.384Z,5.31
2023-02-17T07:41:56.415Z,5.43
2023-02-17T07:42:56.398Z,5.38
2023-02-17T07:43:56.404Z,5.45
2023-02-17T07:44:56.413Z,5.53
2023-02-17T07:45:58.997Z,5.51
2023-02-17T07:46:56.439Z,5.27
2023-02-17T07:47:56.449Z,5.25
2023-02-17T07:48:56.448Z,5.20
2023-02-17T07:49:56.452Z,5.24
2023-02-17T07:50:56.469Z,5.18
2023-02-17T07:51:56.465Z,5.28
2023-02-17T07:52:56.474Z,5.27
2023-02-17T07:53:56.484Z,5.30
2023-02-17T07:54:56.496Z,5.43
2023-02-17T07:55:56.492Z,5.38
2023-02-17T07:56:56.504Z,5.38
2023-02-17T07:57:56.607Z,5.38
2023-02-17T07:58:56.527Z,5.38
2023-02-17T07:59:56.568Z,5.33
2023-02-17T08:00:56.560Z,5.27
2023-02-17T08:01:56.605Z,5.31
2023-02-17T08:02:56.556Z,5.24
2023-02-17T08:03:56.601Z,5.28
2023-02-17T08:04:56.565Z,5.13
2023-02-17T08:05:56.569Z,5.07
2023-02-17T08:06:56.581Z,5.09
2023-02-17T08:07:56.585Z,5.18
2023-02-17T08:08:56.596Z,5.24
2023-02-17T08:09:56.621Z,5.24
2023-02-17T08:10:56.616Z,5.27
2023-02-17T08:11:56.617Z,5.36
2023-02-17T08:12:56.638Z,5.46
2023-02-17T08:13:56.635Z,5.51
2023-02-17T08:14:56.702Z,5.46
2023-02-17T08:15:56.657Z,5.56
2023-02-17T08:16:56.715Z,5.65
2023-02-17T08:17:56.663Z,5.63
2023-02-17T08:18:56.676Z,5.64
2023-02-17T08:19:56.703Z,5.65
2023-02-17T08:20:56.693Z,5.67
2023-02-17T08:21:56.720Z,5.61
2023-02-17T08:22:56.795Z,5.65
2023-02-17T08:23:56.723Z,5.74
2023-02-17T08:24:56.720Z,5.54
2023-02-17T08:25:56.729Z,5.72
2023-02-17T08:26:56.760Z,5.75
2023-02-17T08:27:56.754Z,5.79
2023-02-17T08:28:56.755Z,5.85
2023-02-17T08:29:56.863Z,5.89
2023-02-17T08:30:56.865Z,5.97
2023-02-17T08:31:56.897Z,5.94
2023-02-17T08:32:56.900Z,5.97
2023-02-17T08:33:56.805Z,5.97
2023-02-17T08:34:56.816Z,6.03
2023-02-17T08:35:56.825Z,6.00
2023-02-17T08:36:56.831Z,6.01
2023-02-17T08:37:56.821Z,6.09
2023-02-17T08:38:56.840Z,6.06
2023-02-17T08:39:56.847Z,6.06
2023-02-17T08:40:56.883Z,6.19
2023-02-17T08:41:56.855Z,6.18
2023-02-17T08:42:56.917Z,6.22
2023-02-17T08:43:56.907Z,6.21
2023-02-17T08:44:56.916Z,6.27
2023-02-17T08:45:56.905Z,6.36
2023-02-17T08:46:57.001Z,6.36
2023-02-17T08:47:56.926Z,6.49
2023-02-17T08:48:56.935Z,6.54
2023-02-17T08:49:56.918Z,6.56
2023-02-17T08:50:56.929Z,6.64
2023-02-17T08:51:56.955Z,6.66
2023-02-17T08:52:57.053Z,6.70
2023-02-17T08:53:56.979Z,6.76
2023-02-17T08:54:56.977Z,6.80
2023-02-17T08:55:57.040Z,6.84
2023-02-17T08:56:57.025Z,6.88
2023-02-17T08:57:57.090Z,6.85
2023-02-17T08:58:57.035Z,6.71
2023-02-17T08:59:57.032Z,6.76
2023-02-17T09:00:57.047Z,6.56
2023-02-17T09:01:57.085Z,6.56
2023-02-17T09:02:57.165Z,6.66
2023-02-17T09:03:57.042Z,6.70
2023-02-17T09:04:57.117Z,6.73
2023-02-17T09:05:57.055Z,6.87
2023-02-17T09:06:57.174Z,6.94
2023-02-17T09:07:57.091Z,7.09
2023-02-17T09:08:57.084Z,7.12
2023-02-17T09:09:57.134Z,7.23
2023-02-17T09:10:57.100Z,7.28
2023-02-17T09:11:57.257Z,7.40
2023-02-17T09:12:57.150Z,7.28
2023-02-17T09:13:57.122Z,7.24
2023-02-17T09:14:57.132Z,7.34
2023-02-17T09:15:57.203Z,7.23
2023-02-17T09:16:57.159Z,7.13
2023-02-17T09:17:57.171Z,7.20
2023-02-17T09:18:57.198Z,7.27
2023-02-17T09:19:57.198Z,7.30
2023-02-17T09:20:57.216Z,7.37
2023-02-17T09:21:57.229Z,7.39
2023-02-17T09:22:57.326Z,7.40
2023-02-17T09:23:57.237Z,7.43
2023-02-17T09:24:57.223Z,7.49
2023-02-17T09:25:57.228Z,7.50
2023-02-17T09:26:57.244Z,7.43
2023-02-17T09:27:59.756Z,7.30
2023-02-17T09:28:57.318Z,7.37
2023-02-17T09:29:57.351Z,7.39
2023-02-17T09:30:57.337Z,7.43
2023-02-17T09:31:57.478Z,7.55
2023-02-17T09:32:57.302Z,7.55
2023-02-17T09:33:57.325Z,7.50
2023-02-17T09:34:57.315Z,7.60
2023-02-17T09:35:57.324Z,7.69
2023-02-17T09:36:57.448Z,7.64
2023-02-17T09:37:57.337Z,7.63
2023-02-17T09:38:57.420Z,7.64
2023-02-17T09:39:57.462Z,7.52
2023-02-17T09:40:57.433Z,7.31
2023-02-17T09:41:57.375Z,7.30
2023-02-17T09:42:57.403Z,7.39
2023-02-17T09:43:57.404Z,7.43
2023-02-17T09:44:57.421Z,7.55
2023-02-17T09:45:57.506Z,7.77
2023-02-17T09:47:02.076Z,8.16
2023-02-17T09:47:57.451Z,8.38
2023-02-17T09:48:57.531Z,8.62
2023-02-17T09:49:57.568Z,8.62
2023-02-17T09:50:57.480Z,8.62
2023-02-17T09:51:57.570Z,8.23
2023-02-17T09:52:57.535Z,8.37
2023-02-17T09:53:57.573Z,8.30
2023-02-17T09:54:57.557Z,8.30
2023-02-17T09:55:57.548Z,8.08
2023-02-17T09:56:57.594Z,8.02
2023-02-17T09:57:57.568Z,8.01
2023-02-17T09:58:57.545Z,7.75
2023-02-17T09:59:57.560Z,7.79
2023-02-17T10:00:57.560Z,7.71
2023-02-17T10:01:57.553Z,7.72
2023-02-17T10:02:57.610Z,7.60
2023-02-17T10:03:57.711Z,7.67
2023-02-17T10:04:57.703Z,7.85
2023-02-17T10:05:57.591Z,7.89
2023-02-17T10:06:57.603Z,7.92
2023-02-17T10:07:57.683Z,8.08
2023-02-17T10:08:57.711Z,8.28
2023-02-17T10:09:57.639Z,8.26
2023-02-17T10:10:57.644Z,8.40
2023-02-17T10:11:57.796Z,8.55
2023-02-17T10:12:57.666Z,8.59
2023-02-17T10:13:57.667Z,8.63
2023-02-17T10:14:57.679Z,8.63
2023-02-17T10:15:57.815Z,8.76
2023-02-17T10:16:57.716Z,8.76
2023-02-17T10:17:57.829Z,8.79
2023-02-17T10:18:57.718Z,8.80
2023-02-17T10:19:57.726Z,8.76
2023-02-17T10:20:57.770Z,8.73
2023-02-17T10:21:57.745Z,8.87
2023-02-17T10:22:57.855Z,8.81
2023-02-17T10:23:57.784Z,8.94
2023-02-17T10:24:57.824Z,9.01
2023-02-17T10:25:57.807Z,8.98
2023-02-17T10:26:57.799Z,9.01
2023-02-17T10:27:57.921Z,8.98
2023-02-17T10:28:57.895Z,9.10
2023-02-17T10:29:57.861Z,8.95
2023-02-17T10:30:58.001Z,9.04
2023-02-17T10:31:57.975Z,9.02
2023-02-17T10:32:57.955Z,8.92
2023-02-17T10:33:57.957Z,8.80
2023-02-17T10:34:57.934Z,8.61
2023-02-17T10:35:57.896Z,8.55
2023-02-17T10:36:57.917Z,8.48
2023-02-17T10:37:58.037Z,8.53
2023-02-17T10:38:57.913Z,8.56
2023-02-17T10:39:57.928Z,8.55
2023-02-17T10:40:57.963Z,8.55
2023-02-17T10:41:57.948Z,8.63
2023-02-17T10:42:57.963Z,8.65
2023-02-17T10:43:57.995Z,8.59
2023-02-17T10:44:58.018Z,8.66
2023-02-17T10:45:58.094Z,8.73
2023-02-17T10:46:57.992Z,8.73
2023-02-17T10:47:58.006Z,8.99
2023-02-17T10:48:58.041Z,9.17
2023-02-17T10:49:58.028Z,9.40
2023-02-17T10:50:58.036Z,9.75
2023-02-17T10:51:58.045Z,9.68
2023-02-17T10:52:58.053Z,9.47
2023-02-17T10:53:58.165Z,9.42
2023-02-17T10:54:58.072Z,9.56
2023-02-17T10:55:58.096Z,9.48
2023-02-17T10:56:58.100Z,9.61
2023-02-17T10:57:58.106Z,9.47
2023-02-17T10:58:58.114Z,9.42
2023-02-17T10:59:58.147Z,9.35
2023-02-17T11:00:58.179Z,9.42
2023-02-17T11:01:58.150Z,9.53
2023-02-17T11:02:58.155Z,9.54
2023-02-17T11:03:58.183Z,9.71
2023-02-17T11:04:58.178Z,9.79
2023-02-17T11:05:58.191Z,9.84
2023-02-17T11:06:58.202Z,9.81
2023-02-17T11:07:58.214Z,9.87
2023-02-17T11:08:58.220Z,9.91
2023-02-17T11:09:58.233Z,9.86
2023-02-17T11:10:58.241Z,9.87
2023-02-17T11:11:58.254Z,9.87
2023-02-17T11:12:58.263Z,9.97
2023-02-17T11:13:58.281Z,9.96
2023-02-17T11:14:58.287Z,9.96
2023-02-17T11:15:58.375Z,9.87
2023-02-17T11:16:58.309Z,9.69
2023-02-17T11:17:58.322Z,10.01
2023-02-17T11:18:58.332Z,10.14
2023-02-17T11:19:58.352Z,10.27
2023-02-17T11:20:58.395Z,10.33
2023-02-17T11:21:58.370Z,10.32
2023-02-17T11:22:58.375Z,10.22
2023-02-17T11:23:58.387Z,10.04
2023-02-17T11:24:58.398Z,9.71
2023-02-17T11:25:58.410Z,9.51
2023-02-17T11:26:58.423Z,9.42
2023-02-17T11:27:58.435Z,9.40
2023-02-17T11:28:58.446Z,9.60
2023-02-17T11:29:58.477Z,10.20
2023-02-17T11:30:58.516Z,10.33
2023-02-17T11:31:58.760Z,10.40
2023-02-17T11:32:58.485Z,10.67
2023-02-17T11:33:58.507Z,10.51
2023-02-17T11:34:58.530Z,10.33
2023-02-17T11:35:58.538Z,9.93
2023-02-17T11:36:58.532Z,9.93
2023-02-17T11:37:58.547Z,9.89
2023-02-17T11:38:58.554Z,10.12
2023-02-17T11:39:58.569Z,10.02
2023-02-17T11:40:58.591Z,10.32
2023-02-17T11:41:58.590Z,10.20
2023-02-17T11:42:58.600Z,10.07
2023-02-17T11:43:58.630Z,9.84
2023-02-17T11:44:58.626Z,10.11
2023-02-17T11:46:00.762Z,10.22
2023-02-17T11:46:58.647Z,10.04
2023-02-17T11:47:58.680Z,10.29
2023-02-17T11:48:58.672Z,10.74
2023-02-17T11:49:58.691Z,10.55
2023-02-17T11:50:58.694Z,10.76
2023-02-17T11:51:58.708Z,10.48
2023-02-17T11:52:58.718Z,10.76
2023-02-17T11:53:58.728Z,11.06
2023-02-17T11:54:58.747Z,11.02
2023-02-17T11:55:58.751Z,11.28
2023-02-17T11:56:58.795Z,11.69
2023-02-17T11:57:58.776Z,12.07
2023-02-17T11:58:58.780Z,12.45
2023-02-17T11:59:58.798Z,12.34
2023-02-17T12:00:58.804Z,12.23
2023-02-17T12:01:58.829Z,12.42
2023-02-17T12:02:58.937Z,11.85
2023-02-17T12:03:58.894Z,12.12
2023-02-17T12:04:58.877Z,12.53
2023-02-17T12:05:58.875Z,13.01
2023-02-17T12:06:58.873Z,13.15
2023-02-17T12:07:58.917Z,13.63
2023-02-17T12:08:58.908Z,13.38
2023-02-17T12:09:58.918Z,12.96
2023-02-17T12:10:58.920Z,12.87
2023-02-17T12:11:58.935Z,13.17
2023-02-17T12:12:58.948Z,13.33
2023-02-17T12:13:58.962Z,13.45
2023-02-17T12:14:58.970Z,13.44
2023-02-17T12:15:58.987Z,13.57
2023-02-17T12:16:58.996Z,13.11
2023-02-17T12:17:59.023Z,13.00
2023-02-17T12:18:59.029Z,13.20
2023-02-17T12:19:59.062Z,13.08
2023-02-17T12:20:59.047Z,13.08
2023-02-17T12:21:59.066Z,13.46
2023-02-17T12:22:59.073Z,13.66
2023-02-17T12:23:59.092Z,12.95
2023-02-17T12:24:59.102Z,12.83
2023-02-17T12:25:59.115Z,13.32
2023-02-17T12:26:59.127Z,13.63
2023-02-17T12:27:59.145Z,13.17
2023-02-17T12:28:59.155Z,13.26
2023-02-17T12:29:59.193Z,13.70
2023-02-17T12:30:59.452Z,14.04
2023-02-17T12:31:59.392Z,14.18
2023-02-17T12:32:59.206Z,14.47
2023-02-17T12:33:59.226Z,14.84
2023-02-17T12:34:59.255Z,14.78
2023-02-17T12:35:59.271Z,13.89
2023-02-17T12:36:59.268Z,13.84
2023-02-17T12:37:59.279Z,13.99
2023-02-17T12:38:59.293Z,14.17
2023-02-17T12:39:59.307Z,14.65
2023-02-17T12:40:59.323Z,14.91
2023-02-17T12:41:59.334Z,14.24
2023-02-17T12:42:59.346Z,14.43
2023-02-17T12:43:59.367Z,14.58
2023-02-17T12:44:59.377Z,14.60
2023-02-17T12:45:59.422Z,14.70
2023-02-17T12:46:59.404Z,14.28
2023-02-17T12:47:59.443Z,14.14
2023-02-17T12:48:59.433Z,13.85
2023-02-17T12:49:59.448Z,13.44
2023-02-17T12:50:59.459Z,13.87
2023-02-17T12:51:59.498Z,13.73
2023-02-17T12:52:59.494Z,13.66
2023-02-17T12:53:59.516Z,13.12
2023-02-17T12:54:59.534Z,13.36
2023-02-17T12:55:59.539Z,13.97
2023-02-17T12:56:59.556Z,14.36
2023-02-17T12:57:59.566Z,13.91
2023-02-17T12:58:59.576Z,13.12
2023-02-17T12:59:59.595Z,13.19
2023-02-17T13:00:59.726Z,13.17
2023-02-17T13:01:59.624Z,12.87
2023-02-17T13:02:59.645Z,13.39
2023-02-17T13:03:59.653Z,13.70
2023-02-17T13:04:59.680Z,14.03
2023-02-17T13:05:59.696Z,14.09
2023-02-17T13:06:59.702Z,14.10
2023-02-17T13:07:59.743Z,14.24
2023-02-17T13:08:59.729Z,14.24
2023-02-17T13:09:59.739Z,14.02
2023-02-17T13:10:59.754Z,13.87
2023-02-17T13:11:59.771Z,14.33
2023-02-17T13:12:59.780Z,14.22
2023-02-17T13:13:59.800Z,14.29
2023-02-17T13:14:59.910Z,13.69